Time;durP1;ratioP1;P1;durP2;ratioP2;P2;SDS_P1;SDS_P2;PMS_P1;PMS_P2;Temp;Humidity;BMP_temperature;BMP_pressure;BME280_temperature;BME280_humidity;BME280_pressure;Samples;Min_cycle;Max_cycle;Signal;HPM_P1;HPM_P2
2023/09/14 00:01:56;;;;;;;13.63;4.00;;;;;;;;;;5029346;28;20143;-61
2023/09/14 00:04:22;;;;;;;10.27;3.60;;;;;;;;;;5028642;28;20499;-61
2023/09/14 00:06:49;;;;;;;9.57;4.50;;;;;;;;;;5029612;28;20041;-61
2023/09/14 00:09:15;;;;;;;11.07;3.63;;;;;;;;;;5029307;28;20500;-60
2023/09/14 00:11:41;;;;;;;16.50;5.80;;;;;;;;;;5028525;28;20522;-61
2023/09/14 00:14:07;;;;;;;14.13;4.60;;;;;;;;;;5029033;28;20049;-61
2023/09/14 00:16:33;;;;;;;17.23;5.83;;;;;;;;;;5029055;28;20041;-59
2023/09/14 00:18:59;;;;;;;13.97;5.20;;;;;;;;;;5028815;28;20121;-59
2023/09/14 00:21:25;;;;;;;10.97;4.73;;;;;;;;;;5028831;28;20049;-59
2023/09/14 00:23:51;;;;;;;16.57;5.30;;;;;;;;;;5029023;28;20059;-59
2023/09/14 00:26:17;;;;;;;11.77;5.60;;;;;;;;;;5028417;28;20045;-59
2023/09/14 00:28:43;;;;;;;13.60;5.27;;;;;;;;;;5028653;28;20046;-59
2023/09/14 00:31:09;;;;;;;16.47;4.47;;;;;;;;;;5027294;28;20152;-59
2023/09/14 00:33:35;;;;;;;13.33;4.63;;;;;;;;;;5026176;28;20037;-59
2023/09/14 00:36:01;;;;;;;12.93;5.10;;;;;;;;;;5028243;28;20372;-59
2023/09/14 00:38:27;;;;;;;11.43;4.57;;;;;;;;;;5026719;28;20041;-58
2023/09/14 00:40:53;;;;;;;13.57;4.80;;;;;;;;;;5027350;28;20077;-59
2023/09/14 00:43:19;;;;;;;12.13;4.23;;;;;;;;;;5022897;28;20046;-59
2023/09/14 00:45:46;;;;;;;16.57;4.07;;;;;;;;;;5008585;28;20140;-59
2023/09/14 00:48:12;;;;;;;6.93;2.80;;;;;;;;;;5026409;28;20573;-59
2023/09/14 00:50:39;;;;;;;8.33;2.03;;;;;;;;;;5028539;28;20049;-59
2023/09/14 00:53:08;;;;;;;9.90;2.70;;;;;;;;;;5028435;28;20080;-59
2023/09/14 00:55:34;;;;;;;9.73;3.30;;;;;;;;;;5028562;28;20048;-59
2023/09/14 00:58:00;;;;;;;14.17;4.50;;;;;;;;;;5028336;28;20038;-60
2023/09/14 01:00:27;;;;;;;7.33;2.87;;;;;;;;;;5028280;28;20046;-59
2023/09/14 01:02:58;;;;;;;6.73;2.90;;;;;;;;;;5028359;28;20052;-59
2023/09/14 01:05:27;;;;;;;8.50;3.00;;;;;;;;;;5027130;28;20507;-59
2023/09/14 01:07:53;;;;;;;6.13;2.60;;;;;;;;;;5028197;28;20061;-60
2023/09/14 01:10:19;;;;;;;10.90;3.17;;;;;;;;;;5027700;28;20054;-59
2023/09/14 01:12:48;;;;;;;7.37;3.20;;;;;;;;;;5028165;28;20046;-59
2023/09/14 01:15:33;;;;;;;6.63;3.93;;;;;;;;;;5025014;28;20041;-59
2023/09/14 01:18:18;;;;;;;7.43;2.50;;;;;;;;;;5023777;28;20041;-60
2023/09/14 01:21:03;;;;;;;8.53;3.00;;;;;;;;;;5023267;28;20087;-59
2023/09/14 01:23:29;;;;;;;11.93;3.50;;;;;;;;;;5026872;28;20045;-59
2023/09/14 01:25:56;;;;;;;6.33;3.53;;;;;;;;;;5027262;28;20092;-60
2023/09/14 01:28:22;;;;;;;7.70;3.13;;;;;;;;;;5027760;28;20080;-59
2023/09/14 01:30:48;;;;;;;13.53;4.33;;;;;;;;;;5028147;28;20073;-59
2023/09/14 01:33:15;;;;;;;12.60;4.37;;;;;;;;;;5027981;28;20483;-59
2023/09/14 01:35:50;;;;;;;13.83;5.10;;;;;;;;;;5027929;28;20049;-59
2023/09/14 01:38:16;;;;;;;10.80;3.93;;;;;;;;;;5028410;28;20041;-59
2023/09/14 01:40:43;;;;;;;10.87;4.30;;;;;;;;;;5027534;28;20053;-59
2023/09/14 01:43:10;;;;;;;9.50;4.20;;;;;;;;;;5030487;28;20053;-59
2023/09/14 01:45:36;;;;;;;10.37;4.43;;;;;;;;;;5031283;28;20095;-59
2023/09/14 01:48:02;;;;;;;13.00;4.53;;;;;;;;;;5030143;28;20267;-60
2023/09/14 01:50:28;;;;;;;12.80;4.43;;;;;;;;;;5030696;28;20466;-59
2023/09/14 01:52:55;;;;;;;9.97;4.37;;;;;;;;;;5030757;28;20120;-59
2023/09/14 01:55:21;;;;;;;13.43;4.87;;;;;;;;;;5030584;28;20456;-59
2023/09/14 01:57:47;;;;;;;6.77;3.00;;;;;;;;;;5031059;28;20081;-59
2023/09/14 02:00:13;;;;;;;9.97;3.07;;;;;;;;;;5031043;28;20045;-59
2023/09/14 02:02:39;;;;;;;6.10;2.23;;;;;;;;;;5031373;28;20092;-59
2023/09/14 02:05:05;;;;;;;5.87;2.07;;;;;;;;;;5029846;28;20046;-59
2023/09/14 02:07:31;;;;;;;3.57;1.67;;;;;;;;;;5021810;28;20042;-59
2023/09/14 02:09:57;;;;;;;3.60;1.70;;;;;;;;;;5027988;28;20052;-59
2023/09/14 02:12:24;;;;;;;9.40;2.70;;;;;;;;;;5031137;28;20045;-59
2023/09/14 02:14:50;;;;;;;7.67;3.23;;;;;;;;;;5030990;28;20103;-59
2023/09/14 02:17:16;;;;;;;9.07;3.23;;;;;;;;;;5029481;28;20140;-59
2023/09/14 02:19:42;;;;;;;8.23;3.67;;;;;;;;;;5031271;28;20053;-59
2023/09/14 02:22:08;;;;;;;7.43;3.40;;;;;;;;;;5030462;28;20578;-59
2023/09/14 02:24:34;;;;;;;8.23;3.53;;;;;;;;;;5030662;28;20136;-59
2023/09/14 02:27:00;;;;;;;9.20;4.40;;;;;;;;;;5030252;28;20049;-59
2023/09/14 02:29:26;;;;;;;10.53;3.87;;;;;;;;;;5030567;28;20120;-59
2023/09/14 02:31:52;;;;;;;10.97;4.50;;;;;;;;;;5030527;28;20210;-59
2023/09/14 02:34:18;;;;;;;16.60;4.77;;;;;;;;;;5030720;28;20046;-59
2023/09/14 02:36:44;;;;;;;17.10;5.10;;;;;;;;;;5030045;28;20628;-59
2023/09/14 02:39:10;;;;;;;11.77;4.27;;;;;;;;;;5030674;28;20045;-59
2023/09/14 02:41:36;;;;;;;11.40;4.67;;;;;;;;;;5030335;28;20037;-59
2023/09/14 02:44:02;;;;;;;31.97;7.03;;;;;;;;;;5029515;28;20132;-59
2023/09/14 02:46:28;;;;;;;18.87;6.53;;;;;;;;;;5030417;28;20125;-59
2023/09/14 02:48:54;;;;;;;21.57;7.00;;;;;;;;;;5029499;28;20483;-59
2023/09/14 02:51:20;;;;;;;9.43;4.50;;;;;;;;;;5030164;28;20038;-59
2023/09/14 02:53:47;;;;;;;19.70;5.10;;;;;;;;;;5029106;28;20456;-60
2023/09/14 02:56:13;;;;;;;12.53;4.77;;;;;;;;;;5029609;28;20385;-59
2023/09/14 02:58:39;;;;;;;17.60;5.73;;;;;;;;;;5029872;28;20072;-59
2023/09/14 03:01:09;;;;;;;9.70;4.93;;;;;;;;;;5030073;28;20587;-59
2023/09/14 03:03:39;;;;;;;12.17;5.13;;;;;;;;;;5030148;28;20147;-59
2023/09/14 03:06:05;;;;;;;14.73;5.23;;;;;;;;;;5029569;28;20597;-59
2023/09/14 03:08:32;;;;;;;9.80;3.87;;;;;;;;;;5029298;28;20050;-59
2023/09/14 03:10:58;;;;;;;8.50;3.77;;;;;;;;;;5029878;28;20120;-59
2023/09/14 03:13:24;;;;;;;12.23;4.00;;;;;;;;;;5029640;28;20042;-59
2023/09/14 03:15:56;;;;;;;10.83;3.90;;;;;;;;;;5029364;28;20037;-59
2023/09/14 03:18:22;;;;;;;10.25;2.97;;;;;;;;;;5029120;28;20069;-59
2023/09/14 03:20:55;;;;;;;7.43;3.67;;;;;;;;;;5029864;28;20049;-59
2023/09/14 03:23:22;;;;;;;11.25;4.22;;;;;;;;;;5029739;28;20057;-58
2023/09/14 03:25:48;;;;;;;9.53;5.03;;;;;;;;;;5029166;28;20570;-59
2023/09/14 03:28:14;;;;;;;9.77;4.23;;;;;;;;;;5029375;28;20049;-59
2023/09/14 03:30:40;;;;;;;9.87;4.27;;;;;;;;;;5029294;28;20096;-59
2023/09/14 03:33:07;;;;;;;11.03;4.77;;;;;;;;;;5029481;28;20049;-59
2023/09/14 03:35:33;;;;;;;9.40;4.33;;;;;;;;;;5029378;28;20050;-59
2023/09/14 03:37:59;;;;;;;13.17;5.97;;;;;;;;;;5027722;28;20136;-60
2023/09/14 03:40:25;;;;;;;12.10;4.87;;;;;;;;;;5029070;28;20411;-59
2023/09/14 03:42:51;;;;;;;10.07;4.67;;;;;;;;;;5029146;28;20045;-59
2023/09/14 03:45:17;;;;;;;11.13;4.80;;;;;;;;;;5029078;28;20072;-59
2023/09/14 03:47:43;;;;;;;11.20;4.53;;;;;;;;;;5028639;28;20048;-59
2023/09/14 03:50:10;;;;;;;6.00;2.87;;;;;;;;;;5028811;28;20107;-59
2023/09/14 03:52:36;;;;;;;6.77;2.30;;;;;;;;;;5028840;28;20048;-59
2023/09/14 03:55:02;;;;;;;10.63;2.80;;;;;;;;;;5028682;28;20126;-59
2023/09/14 03:57:29;;;;;;;5.63;2.90;;;;;;;;;;5028439;28;20046;-59
2023/09/14 03:59:55;;;;;;;9.27;3.53;;;;;;;;;;5028493;28;20053;-59
2023/09/14 04:02:21;;;;;;;6.37;3.70;;;;;;;;;;5028393;28;20041;-58
2023/09/14 04:04:47;;;;;;;12.73;4.73;;;;;;;;;;5028922;28;20045;-59
2023/09/14 04:07:13;;;;;;;11.70;4.03;;;;;;;;;;5028722;28;20460;-59
2023/09/14 04:09:41;;;;;;;6.07;3.40;;;;;;;;;;5027961;28;20049;-59
2023/09/14 04:12:08;;;;;;;11.60;4.60;;;;;;;;;;5028746;28;20045;-59
2023/09/14 04:14:34;;;;;;;6.40;3.47;;;;;;;;;;5028569;28;20389;-58
2023/09/14 04:17:01;;;;;;;8.97;3.27;;;;;;;;;;5028439;28;20536;-59
2023/09/14 04:19:27;;;;;;;6.20;3.40;;;;;;;;;;5028473;28;20567;-59
2023/09/14 04:21:53;;;;;;;6.47;2.90;;;;;;;;;;5028695;28;20469;-59
2023/09/14 04:24:20;;;;;;;7.57;3.67;;;;;;;;;;5027910;28;20408;-59
2023/09/14 04:26:46;;;;;;;7.67;3.70;;;;;;;;;;5028412;28;20057;-59
2023/09/14 04:29:12;;;;;;;7.23;3.60;;;;;;;;;;5028602;28;20060;-59
2023/09/14 04:31:40;;;;;;;6.37;3.53;;;;;;;;;;5028334;28;20392;-59
2023/09/14 04:34:07;;;;;;;7.40;3.63;;;;;;;;;;5028315;28;20099;-59
2023/09/14 04:36:33;;;;;;;7.13;3.90;;;;;;;;;;5026488;28;20095;-59
2023/09/14 04:39:00;;;;;;;6.57;3.37;;;;;;;;;;5027669;28;20037;-59
2023/09/14 04:41:26;;;;;;;9.47;3.97;;;;;;;;;;5028501;28;20081;-59
2023/09/14 04:43:52;;;;;;;9.43;3.90;;;;;;;;;;5028620;28;20052;-59
2023/09/14 04:46:18;;;;;;;12.40;3.77;;;;;;;;;;5027937;28;20038;-59
2023/09/14 04:48:45;;;;;;;7.93;3.90;;;;;;;;;;5028386;28;20511;-59
2023/09/14 04:51:11;;;;;;;10.57;3.90;;;;;;;;;;5028364;28;20049;-59
2023/09/14 04:53:37;;;;;;;8.03;3.00;;;;;;;;;;5027867;28;20045;-59
2023/09/14 04:56:03;;;;;;;5.87;3.60;;;;;;;;;;5027822;28;20132;-59
2023/09/14 04:58:29;;;;;;;8.47;4.47;;;;;;;;;;5027393;28;20365;-59
2023/09/14 05:00:55;;;;;;;10.50;3.90;;;;;;;;;;5026564;28;20087;-59
2023/09/14 05:03:21;;;;;;;7.20;3.63;;;;;;;;;;5027522;28;20041;-60
2023/09/14 05:05:52;;;;;;;9.83;3.50;;;;;;;;;;5028579;28;20412;-59
2023/09/14 05:08:18;;;;;;;9.20;3.70;;;;;;;;;;5027524;28;20045;-59
2023/09/14 05:10:44;;;;;;;8.80;3.30;;;;;;;;;;5028353;28;20038;-58
2023/09/14 05:13:10;;;;;;;9.93;3.90;;;;;;;;;;5027761;28;20045;-59
2023/09/14 05:15:36;;;;;;;12.50;4.37;;;;;;;;;;5027363;28;20045;-59
2023/09/14 05:18:02;;;;;;;7.17;3.17;;;;;;;;;;5028828;28;20128;-59
2023/09/14 05:20:28;;;;;;;8.93;3.73;;;;;;;;;;5031731;28;20042;-59
2023/09/14 05:22:54;;;;;;;9.67;3.33;;;;;;;;;;5031789;28;20128;-59
2023/09/14 05:25:21;;;;;;;7.53;3.17;;;;;;;;;;5030791;28;20488;-59
2023/09/14 05:27:47;;;;;;;6.17;3.43;;;;;;;;;;5031918;28;20041;-59
2023/09/14 05:30:13;;;;;;;9.37;3.33;;;;;;;;;;5031536;28;20069;-59
2023/09/14 05:32:39;;;;;;;9.03;3.80;;;;;;;;;;5031349;28;20512;-59
2023/09/14 05:35:06;;;;;;;5.90;2.77;;;;;;;;;;5031674;28;20068;-59
2023/09/14 05:37:33;;;;;;;6.27;2.87;;;;;;;;;;5031097;28;20054;-59
2023/09/14 05:39:59;;;;;;;6.47;2.77;;;;;;;;;;5031182;28;20463;-59
2023/09/14 05:42:25;;;;;;;8.03;2.50;;;;;;;;;;5031473;28;20056;-59
2023/09/14 05:44:51;;;;;;;6.87;2.93;;;;;;;;;;5028658;28;20106;-59
2023/09/14 05:47:17;;;;;;;4.57;2.33;;;;;;;;;;5030989;28;20050;-59
2023/09/14 05:49:45;;;;;;;5.07;2.20;;;;;;;;;;5029310;28;20077;-59
2023/09/14 05:52:11;;;;;;;10.23;2.23;;;;;;;;;;5030988;28;20056;-59
2023/09/14 05:54:37;;;;;;;7.23;2.57;;;;;;;;;;5030840;28;20041;-59
2023/09/14 05:57:03;;;;;;;9.03;3.30;;;;;;;;;;5029929;28;20096;-58
2023/09/14 05:59:29;;;;;;;8.73;3.40;;;;;;;;;;5030266;28;20099;-59
2023/09/14 06:01:56;;;;;;;7.30;3.00;;;;;;;;;;5030872;28;20107;-59
2023/09/14 06:04:22;;;;;;;9.10;3.13;;;;;;;;;;5030665;28;20041;-59
2023/09/14 06:06:48;;;;;;;11.23;4.30;;;;;;;;;;5030777;28;20049;-59
2023/09/14 06:09:14;;;;;;;9.40;3.47;;;;;;;;;;5030812;28;20060;-59
2023/09/14 06:11:41;;;;;;;11.87;4.70;;;;;;;;;;5031076;28;20401;-59
2023/09/14 06:14:07;;;;;;;9.53;3.77;;;;;;;;;;5030386;28;20049;-59
2023/09/14 06:16:33;;;;;;;11.63;4.70;;;;;;;;;;5029023;28;20542;-59
2023/09/14 06:18:59;;;;;;;9.00;4.20;;;;;;;;;;5030516;28;20042;-59
2023/09/14 06:21:25;;;;;;;11.40;3.80;;;;;;;;;;5030577;28;20057;-59
2023/09/14 06:23:51;;;;;;;11.23;4.20;;;;;;;;;;5029869;28;20041;-60
2023/09/14 06:26:18;;;;;;;8.73;3.33;;;;;;;;;;5030456;28;20068;-59
2023/09/14 06:28:44;;;;;;;11.73;4.77;;;;;;;;;;5028016;28;20470;-59
2023/09/14 06:31:10;;;;;;;11.80;4.57;;;;;;;;;;5030281;28;20481;-59
2023/09/14 06:33:36;;;;;;;10.97;4.07;;;;;;;;;;5028489;28;20053;-59
2023/09/14 06:36:02;;;;;;;11.50;4.30;;;;;;;;;;5028504;28;20042;-59
2023/09/14 06:38:28;;;;;;;9.30;3.93;;;;;;;;;;5030589;28;20131;-59
2023/09/14 06:40:55;;;;;;;8.07;3.20;;;;;;;;;;5033468;28;20088;-59
2023/09/14 06:43:22;;;;;;;9.87;4.47;;;;;;;;;;5049875;28;20506;-61
2023/09/14 06:45:48;;;;;;;10.00;4.00;;;;;;;;;;5030032;28;20057;-59
2023/09/14 06:48:14;;;;;;;9.97;4.37;;;;;;;;;;5028547;28;20477;-59
2023/09/14 06:50:40;;;;;;;9.77;4.00;;;;;;;;;;5029691;28;20045;-60
2023/09/14 06:53:06;;;;;;;9.47;4.10;;;;;;;;;;5029568;28;20127;-59
2023/09/14 06:55:32;;;;;;;11.33;5.70;;;;;;;;;;5029324;28;20091;-59
2023/09/14 06:57:58;;;;;;;15.47;6.17;;;;;;;;;;5029115;28;20056;-59
2023/09/14 07:00:24;;;;;;;10.17;6.10;;;;;;;;;;5032459;28;20055;-58
2023/09/14 07:02:52;;;;;;;13.73;5.67;;;;;;;;;;5028766;28;20599;-59
2023/09/14 07:05:18;;;;;;;10.33;5.47;;;;;;;;;;5030250;28;20068;-59
2023/09/14 07:07:44;;;;;;;18.13;6.83;;;;;;;;;;5038613;28;20145;-59
2023/09/14 07:10:10;;;;;;;14.53;5.33;;;;;;;;;;5029474;28;20124;-59
2023/09/14 07:12:36;;;;;;;8.03;4.30;;;;;;;;;;5026250;28;20042;-59
2023/09/14 07:15:02;;;;;;;10.07;4.60;;;;;;;;;;5027277;28;20041;-59
2023/09/14 07:17:29;;;;;;;15.57;4.40;;;;;;;;;;5049654;28;20040;-59
2023/09/14 07:19:55;;;;;;;9.73;3.90;;;;;;;;;;5030411;28;20044;-59
2023/09/14 07:22:21;;;;;;;9.27;4.63;;;;;;;;;;5028330;28;20042;-59
2023/09/14 07:24:47;;;;;;;13.60;5.13;;;;;;;;;;5028142;28;20037;-59
2023/09/14 07:27:14;;;;;;;10.00;4.13;;;;;;;;;;5030094;28;20092;-59
2023/09/14 07:29:40;;;;;;;16.33;4.80;;;;;;;;;;5028764;28;20115;-59
2023/09/14 07:32:06;;;;;;;10.87;3.83;;;;;;;;;;5029268;28;20076;-59
2023/09/14 07:34:32;;;;;;;11.70;3.57;;;;;;;;;;5028159;28;20380;-59
2023/09/14 07:36:58;;;;;;;9.60;3.70;;;;;;;;;;5026228;28;20048;-59
2023/09/14 07:39:24;;;;;;;14.13;3.97;;;;;;;;;;5029395;28;20081;-59
2023/09/14 07:41:57;;;;;;;12.03;4.07;;;;;;;;;;5028111;28;20045;-59
2023/09/14 07:44:23;;;;;;;11.98;3.92;;;;;;;;;;5028976;28;20042;-59
2023/09/14 07:46:49;;;;;;;13.33;4.17;;;;;;;;;;5028898;28;20041;-59
2023/09/14 07:49:15;;;;;;;8.67;3.77;;;;;;;;;;5028864;28;20041;-59
2023/09/14 07:51:41;;;;;;;9.13;4.07;;;;;;;;;;5027413;28;20042;-60
2023/09/14 07:54:07;;;;;;;10.27;3.30;;;;;;;;;;5028723;28;20364;-62
2023/09/14 07:56:33;;;;;;;13.70;3.17;;;;;;;;;;5029065;28;20075;-61
2023/09/14 07:58:59;;;;;;;10.27;3.83;;;;;;;;;;5028604;28;20045;-60
2023/09/14 08:01:25;;;;;;;12.10;3.30;;;;;;;;;;5028581;28;20045;-61
2023/09/14 08:03:51;;;;;;;11.13;3.70;;;;;;;;;;5028394;28;20064;-60
2023/09/14 08:06:19;;;;;;;8.67;2.73;;;;;;;;;;5028645;28;20456;-61
2023/09/14 08:08:45;;;;;;;11.33;3.03;;;;;;;;;;5028827;28;20172;-60
2023/09/14 08:11:12;;;;;;;12.47;3.80;;;;;;;;;;5027220;28;20150;-60
2023/09/14 08:13:38;;;;;;;11.20;3.60;;;;;;;;;;5028602;28;20052;-60
2023/09/14 08:16:04;;;;;;;12.80;2.73;;;;;;;;;;5028196;28;20535;-59
2023/09/14 08:18:30;;;;;;;8.37;3.17;;;;;;;;;;5028551;28;20038;-60
2023/09/14 08:20:56;;;;;;;10.63;2.80;;;;;;;;;;5028442;28;20049;-59
2023/09/14 08:23:22;;;;;;;7.70;2.87;;;;;;;;;;5027850;28;20399;-60
2023/09/14 08:25:48;;;;;;;11.90;2.73;;;;;;;;;;5028352;28;20049;-60
2023/09/14 08:28:15;;;;;;;9.43;3.87;;;;;;;;;;5028175;28;20049;-60
2023/09/14 08:30:41;;;;;;;8.43;3.10;;;;;;;;;;5026977;28;20053;-60
2023/09/14 08:33:08;;;;;;;13.07;3.17;;;;;;;;;;5027721;28;20440;-60
2023/09/14 08:35:35;;;;;;;9.97;2.80;;;;;;;;;;5028003;28;20199;-60
2023/09/14 08:38:03;;;;;;;7.30;2.47;;;;;;;;;;5028161;28;20045;-60
2023/09/14 08:40:29;;;;;;;7.83;2.00;;;;;;;;;;5028267;28;20057;-61
2023/09/14 08:42:56;;;;;;;8.67;2.47;;;;;;;;;;5027495;28;20045;-61
2023/09/14 08:45:26;;;;;;;6.63;2.10;;;;;;;;;;5027854;28;20033;-60
2023/09/14 08:47:53;;;;;;;6.27;2.27;;;;;;;;;;5028028;28;20527;-60
2023/09/14 08:50:19;;;;;;;6.57;2.10;;;;;;;;;;5027645;28;20048;-60
2023/09/14 08:52:46;;;;;;;8.10;2.17;;;;;;;;;;5027256;28;20041;-60
2023/09/14 08:55:12;;;;;;;5.90;1.77;;;;;;;;;;5027853;28;20626;-61
2023/09/14 08:57:42;;;;;;;6.37;1.70;;;;;;;;;;5027823;28;20115;-61
2023/09/14 09:00:14;;;;;;;6.53;1.70;;;;;;;;;;5027564;28;20096;-61
2023/09/14 09:02:42;;;;;;;7.68;1.67;;;;;;;;;;5028124;28;20459;-61
2023/09/14 09:05:08;;;;;;;5.57;2.07;;;;;;;;;;5027815;28;20496;-61
2023/09/14 09:07:34;;;;;;;8.30;2.27;;;;;;;;;;5027697;28;20061;-61
2023/09/14 09:10:01;;;;;;;8.63;2.07;;;;;;;;;;5027322;28;20049;-61
2023/09/14 09:12:29;;;;;;;7.80;1.60;;;;;;;;;;5027809;28;20491;-59
2023/09/14 09:14:55;;;;;;;8.50;2.07;;;;;;;;;;5027529;28;20063;-59
2023/09/14 09:17:21;;;;;;;5.70;1.90;;;;;;;;;;5027531;28;20045;-60
2023/09/14 09:19:48;;;;;;;7.47;1.67;;;;;;;;;;5027709;28;20040;-60
2023/09/14 09:22:17;;;;;;;9.03;2.40;;;;;;;;;;5027747;28;20049;-61
2023/09/14 09:24:43;;;;;;;4.37;1.70;;;;;;;;;;5027320;28;20045;-61
2023/09/14 09:27:25;;;;;;;8.40;2.13;;;;;;;;;;5027373;28;20083;-61
2023/09/14 09:29:51;;;;;;;6.17;1.77;;;;;;;;;;5027607;28;20056;-61
2023/09/14 09:32:21;;;;;;;6.10;1.87;;;;;;;;;;5027380;28;20126;-61
2023/09/14 09:34:47;;;;;;;5.83;1.70;;;;;;;;;;5027567;28;20099;-61
2023/09/14 09:37:14;;;;;;;7.13;1.80;;;;;;;;;;5027030;28;20041;-61
2023/09/14 09:39:41;;;;;;;7.00;1.93;;;;;;;;;;5027895;28;20045;-60
2023/09/14 09:42:08;;;;;;;8.77;2.00;;;;;;;;;;5027890;28;20136;-63
2023/09/14 09:44:34;;;;;;;5.37;1.80;;;;;;;;;;5027439;28;20512;-60
2023/09/14 09:47:00;;;;;;;6.07;1.80;;;;;;;;;;5027384;28;20523;-61
2023/09/14 09:49:29;;;;;;;8.60;2.23;;;;;;;;;;5027667;28;20048;-61
2023/09/14 09:51:57;;;;;;;8.30;2.53;;;;;;;;;;5027046;28;20047;-62
2023/09/14 09:54:24;;;;;;;5.00;1.70;;;;;;;;;;5027535;28;20046;-62
2023/09/14 09:56:51;;;;;;;5.67;1.90;;;;;;;;;;5027067;28;20049;-61
2023/09/14 09:59:17;;;;;;;8.10;1.97;;;;;;;;;;5027365;28;20516;-62
2023/09/14 10:01:47;;;;;;;8.17;2.00;;;;;;;;;;5026911;28;20037;-59
2023/09/14 10:04:15;;;;;;;8.20;2.10;;;;;;;;;;5029325;28;20124;-59
2023/09/14 10:06:41;;;;;;;4.73;1.73;;;;;;;;;;5030855;28;20518;-59
2023/09/14 10:09:11;;;;;;;4.80;1.70;;;;;;;;;;5030968;28;20050;-59
2023/09/14 10:11:38;;;;;;;6.77;2.00;;;;;;;;;;5030894;28;20045;-60
2023/09/14 10:14:05;;;;;;;4.80;1.67;;;;;;;;;;5030429;28;20037;-60
2023/09/14 10:16:41;;;;;;;8.60;2.10;;;;;;;;;;5030618;28;20127;-60
2023/09/14 10:19:07;;;;;;;7.30;2.20;;;;;;;;;;5030681;28;20045;-60
2023/09/14 10:21:33;;;;;;;11.83;2.67;;;;;;;;;;5030784;28;20057;-60
2023/09/14 10:24:00;;;;;;;8.13;1.90;;;;;;;;;;5029956;28;20076;-60
2023/09/14 10:26:26;;;;;;;6.27;1.70;;;;;;;;;;5031010;28;20045;-61
2023/09/14 10:28:54;;;;;;;9.40;2.50;;;;;;;;;;5030421;28;20048;-61
2023/09/14 10:31:20;;;;;;;7.50;2.17;;;;;;;;;;5029962;28;20041;-61
2023/09/14 10:33:48;;;;;;;8.03;1.83;;;;;;;;;;5030424;28;20041;-61
2023/09/14 10:36:15;;;;;;;5.20;1.80;;;;;;;;;;5030284;28;20496;-60
2023/09/14 10:38:45;;;;;;;9.00;2.37;;;;;;;;;;5030472;28;20042;-60
2023/09/14 10:41:14;;;;;;;5.63;1.77;;;;;;;;;;5029726;28;20057;-61
2023/09/14 10:43:41;;;;;;;5.30;1.87;;;;;;;;;;5030205;28;20041;-61
2023/09/14 10:46:14;;;;;;;7.40;1.93;;;;;;;;;;5030221;28;20037;-61
2023/09/14 10:48:40;;;;;;;8.00;2.10;;;;;;;;;;5030192;28;20092;-61
2023/09/14 10:51:09;;;;;;;8.15;2.00;;;;;;;;;;5030224;28;20416;-61
2023/09/14 10:53:35;;;;;;;5.88;1.90;;;;;;;;;;5029745;28;20124;-61
2023/09/14 10:56:03;;;;;;;5.85;1.50;;;;;;;;;;5030093;28;20103;-60
2023/09/14 10:58:42;;;;;;;7.18;1.88;;;;;;;;;;5030032;28;20053;-60
2023/09/14 11:01:12;;;;;;;9.90;1.92;;;;;;;;;;5029855;28;20415;-61
2023/09/14 11:03:57;;;;;;;8.75;2.20;;;;;;;;;;5029528;28;20185;-61
2023/09/14 11:06:42;;;;;;;8.25;2.00;;;;;;;;;;5030163;28;20060;-61
2023/09/14 11:09:08;;;;;;;11.07;2.42;;;;;;;;;;5029811;28;20053;-61
2023/09/14 11:11:38;;;;;;;6.30;2.20;;;;;;;;;;5029825;28;20046;-61
2023/09/14 11:14:07;;;;;;;4.72;1.83;;;;;;;;;;5029427;28;20102;-60
2023/09/14 11:16:53;;;;;;;5.47;2.20;;;;;;;;;;5028756;28;20057;-61
2023/09/14 11:19:52;;;;;;;6.40;2.10;;;;;;;;;;5029635;28;20451;-61
2023/09/14 11:22:18;;;;;;;8.70;2.30;;;;;;;;;;5018277;28;20057;-60
2023/09/14 11:24:45;;;;;;;5.90;1.90;;;;;;;;;;5028975;28;20068;-60
2023/09/14 11:27:18;;;;;;;6.50;2.40;;;;;;;;;;5029172;28;20133;-60
2023/09/14 11:29:45;;;;;;;5.17;2.07;;;;;;;;;;5029510;28;20112;-61
2023/09/14 11:32:11;;;;;;;6.10;2.00;;;;;;;;;;5029404;28;20046;-60
2023/09/14 11:34:38;;;;;;;10.97;2.40;;;;;;;;;;5028996;28;20045;-60
2023/09/14 11:37:05;;;;;;;6.05;2.15;;;;;;;;;;5029149;28;20140;-61
2023/09/14 11:39:31;;;;;;;7.07;2.60;;;;;;;;;;5029003;28;20120;-61
2023/09/14 11:42:01;;;;;;;7.32;2.58;;;;;;;;;;5028842;28;20052;-60
2023/09/14 11:44:31;;;;;;;7.32;2.08;;;;;;;;;;5029409;28;20095;-61
2023/09/14 11:47:01;;;;;;;9.20;2.53;;;;;;;;;;5029268;28;20084;-61
2023/09/14 11:49:29;;;;;;;8.52;2.85;;;;;;;;;;5028973;28;20103;-61
2023/09/14 11:51:55;;;;;;;4.68;1.90;;;;;;;;;;5029034;28;20042;-60
2023/09/14 11:54:21;;;;;;;7.43;2.25;;;;;;;;;;5028329;28;20054;-60
2023/09/14 11:56:53;;;;;;;6.03;2.05;;;;;;;;;;5029057;28;20054;-61
2023/09/14 11:59:29;;;;;;;4.53;2.15;;;;;;;;;;5029003;28;20411;-61
2023/09/14 12:01:55;;;;;;;6.35;2.20;;;;;;;;;;5028941;28;20081;-60
2023/09/14 12:04:24;;;;;;;7.22;2.40;;;;;;;;;;5028534;28;20041;-61
2023/09/14 12:06:51;;;;;;;7.03;2.63;;;;;;;;;;5028793;28;20041;-61
2023/09/14 12:09:17;;;;;;;5.85;2.42;;;;;;;;;;5028642;28;20045;-60
2023/09/14 12:11:44;;;;;;;9.40;2.60;;;;;;;;;;5028920;28;20069;-61
2023/09/14 12:14:10;;;;;;;6.13;2.42;;;;;;;;;;5028736;28;20053;-61
2023/09/14 12:16:38;;;;;;;8.50;2.95;;;;;;;;;;5028169;28;20045;-61
2023/09/14 12:19:04;;;;;;;5.57;2.15;;;;;;;;;;5027938;28;20776;-60
2023/09/14 12:21:30;;;;;;;5.35;2.42;;;;;;;;;;5028799;28;20478;-61
2023/09/14 12:23:58;;;;;;;7.60;2.78;;;;;;;;;;5026030;28;20041;-60
2023/09/14 12:26:24;;;;;;;5.30;2.05;;;;;;;;;;5028500;28;20064;-61
2023/09/14 12:28:52;;;;;;;6.07;2.70;;;;;;;;;;5028360;28;20124;-61
2023/09/14 12:31:19;;;;;;;7.85;2.63;;;;;;;;;;5027875;28;20404;-61
2023/09/14 12:33:45;;;;;;;9.48;2.78;;;;;;;;;;5028096;28;20128;-60
2023/09/14 12:36:11;;;;;;;7.40;2.63;;;;;;;;;;5028066;28;20045;-60
2023/09/14 12:38:38;;;;;;;8.50;2.80;;;;;;;;;;5028439;28;20049;-60
2023/09/14 12:41:05;;;;;;;7.68;2.80;;;;;;;;;;5025652;28;20047;-60
2023/09/14 12:43:31;;;;;;;6.50;2.53;;;;;;;;;;5028711;28;20148;-60
2023/09/14 12:45:57;;;;;;;8.13;3.03;;;;;;;;;;5028294;28;20463;-60
2023/09/14 12:48:27;;;;;;;6.00;2.60;;;;;;;;;;5028073;28;20053;-61
2023/09/14 12:50:53;;;;;;;5.85;2.25;;;;;;;;;;5026665;28;20108;-61
2023/09/14 12:53:19;;;;;;;5.28;2.42;;;;;;;;;;5010920;28;20056;-61
2023/09/14 12:55:46;;;;;;;7.30;2.45;;;;;;;;;;5026718;28;20084;-61
2023/09/14 12:58:12;;;;;;;6.55;2.40;;;;;;;;;;5028064;28;20046;-61
2023/09/14 13:00:39;;;;;;;7.07;2.70;;;;;;;;;;5025635;28;20092;-61
2023/09/14 13:03:09;;;;;;;7.75;2.60;;;;;;;;;;5026745;28;20499;-61
2023/09/14 13:05:35;;;;;;;7.20;2.60;;;;;;;;;;5027057;28;20033;-61
2023/09/14 13:08:03;;;;;;;6.43;2.58;;;;;;;;;;5026940;28;20102;-61
2023/09/14 13:10:30;;;;;;;7.55;2.80;;;;;;;;;;5028276;28;20367;-60
2023/09/14 13:13:08;;;;;;;5.07;2.67;;;;;;;;;;5028267;28;20106;-61
2023/09/14 13:15:35;;;;;;;9.48;2.83;;;;;;;;;;5028333;28;20065;-60
2023/09/14 13:18:03;;;;;;;7.82;2.95;;;;;;;;;;5027341;28;20064;-61
2023/09/14 13:20:32;;;;;;;7.13;2.90;;;;;;;;;;5027261;28;20512;-60
2023/09/14 13:22:59;;;;;;;6.72;2.75;;;;;;;;;;5026513;28;20385;-61
2023/09/14 13:25:25;;;;;;;8.73;2.50;;;;;;;;;;5027783;28;20136;-61
2023/09/14 13:27:51;;;;;;;7.57;2.90;;;;;;;;;;5026404;28;20112;-61
2023/09/14 13:30:17;;;;;;;7.35;2.45;;;;;;;;;;5026444;28;20041;-61
2023/09/14 13:32:46;;;;;;;8.18;3.42;;;;;;;;;;5027527;28;20049;-60
2023/09/14 13:35:13;;;;;;;6.55;3.15;;;;;;;;;;5027913;28;20048;-60
2023/09/14 13:37:40;;;;;;;5.68;2.80;;;;;;;;;;5028033;28;20052;-61
2023/09/14 13:40:13;;;;;;;7.53;2.97;;;;;;;;;;5031827;28;20072;-61
2023/09/14 13:42:39;;;;;;;5.70;2.85;;;;;;;;;;5031148;28;20064;-61
2023/09/14 13:45:05;;;;;;;6.25;2.55;;;;;;;;;;5031550;28;20053;-60
2023/09/14 13:47:31;;;;;;;3.97;2.38;;;;;;;;;;5031726;28;20052;-60
2023/09/14 13:49:57;;;;;;;6.20;2.42;;;;;;;;;;5030905;28;20053;-60
2023/09/14 13:52:23;;;;;;;6.82;2.58;;;;;;;;;;5030132;28;20041;-60
2023/09/14 13:54:49;;;;;;;8.80;2.42;;;;;;;;;;5031173;28;20094;-60
2023/09/14 13:57:15;;;;;;;6.05;2.30;;;;;;;;;;5031281;28;20052;-60
2023/09/14 13:59:43;;;;;;;6.03;2.35;;;;;;;;;;5030003;28;20449;-61
2023/09/14 14:02:09;;;;;;;7.60;2.35;;;;;;;;;;5031274;28;20041;-60
2023/09/14 14:04:35;;;;;;;6.65;2.70;;;;;;;;;;5030185;28;20056;-60
2023/09/14 14:07:01;;;;;;;5.40;2.47;;;;;;;;;;5029904;28;20041;-60
2023/09/14 14:09:27;;;;;;;6.20;2.70;;;;;;;;;;5031303;28;20140;-60
2023/09/14 14:11:53;;;;;;;6.82;2.70;;;;;;;;;;5027288;28;20037;-60
2023/09/14 14:14:19;;;;;;;7.15;2.70;;;;;;;;;;5024107;28;20495;-60
2023/09/14 14:16:47;;;;;;;5.72;2.55;;;;;;;;;;5030274;28;20049;-60
2023/09/14 14:19:13;;;;;;;7.10;3.03;;;;;;;;;;5030684;28;20392;-60
2023/09/14 14:21:40;;;;;;;8.68;3.30;;;;;;;;;;5029770;28;20041;-60
2023/09/14 14:24:06;;;;;;;6.13;2.97;;;;;;;;;;5030724;28;20397;-60
2023/09/14 14:26:32;;;;;;;6.13;2.45;;;;;;;;;;5029927;28;20045;-60
2023/09/14 14:28:58;;;;;;;5.40;2.60;;;;;;;;;;5030501;28;20056;-60
2023/09/14 14:31:24;;;;;;;7.93;2.78;;;;;;;;;;5030574;28;20053;-62
2023/09/14 14:33:50;;;;;;;4.72;2.25;;;;;;;;;;5030686;28;20053;-61
2023/09/14 14:36:18;;;;;;;5.28;2.58;;;;;;;;;;5028625;28;20490;-61
2023/09/14 14:38:44;;;;;;;5.03;2.40;;;;;;;;;;5029223;28;20416;-61